Myrtlewood, Alabama
Current Conditions -  °F | °C
As of 9:35 AM on Saturday 25 Oct 2014 (Local Time) from KDYA Reporting Station
Clear Clear  
Wind Chill: 61°   Ceiling: Unl
Heat Index: 61°   Visibility: 10mi
Dew Point: 51°   Wind: 0mph
Humidity: 70%   Direction: NA
Pressure: 30.15"   Gusts: NA
Location:  32.25°N, 87.95°W
Report Text: KDYA 251435Z AUTO 00000KT 10SM CLR 16/11 A3015 RMK AO2 T01620108
Loading
Personal Weather Stations






























Interactive Weather Map
Tropical Storm Tracking
New forecast layout! Learn more

10-Day Weather Forecast

Advertisements
Track Severe Weather on mobile